American Life — WDI7069 — position and weather

sailwx.info

Track history (hours):
 
Tides and Currents Weather Stations Pressure Air Temp Water Temp Dewpoint Dewpoint Depression Visibility Wind Speed Wind Dir Waves Ship Positions

American Life

Owner: American Commercial Lines LLC, Jeffersonville, IN. More information available from US FCC via Universal Licensing System and Coast Guard Vessel Documentation Center.

Last reported at 2018-Jan-20 11:03 UTC. Time now 2018-Jan-20 13:04 UTC.
Position N 29°56' W 093°01'.

Length 24 m; draft 3.1 m.

Type: Towing. MMSI: 367725060.

Date/timePositionNaut miles runAvg speedWind from/ knotsBaromVisibWave heightAir tempDewpointWater temp
2018-Jan-20 11:03N 29°56' W 093°01'0 3.3
2018-Jan-20 11:00N 29°56' W 093°01'2 3.7
2018-Jan-20 10:30N 29°56' W 093°03'2 4.5
2018-Jan-20 10:00N 29°56' W 093°06'2 4.7
2018-Jan-20 09:30N 29°56' W 093°09'2 4.2
2018-Jan-20 09:00N 29°57' W 093°11'3 5.0
2018-Jan-20 08:30N 29°59' W 093°13'2 4.4
2018-Jan-20 08:00N 30°01' W 093°14'1 1.6
2018-Jan-20 07:30N 30°02' W 093°15'2 3.2
2018-Jan-20 07:00N 30°03' W 093°16'2 4.6
2018-Jan-20 06:30N 30°05' W 093°17'1 1.8
2018-Jan-20 06:00N 30°05' W 093°18'1 1.4
2018-Jan-20 05:30N 30°06' W 093°18'0 0.1
2018-Jan-20 05:00N 30°06' W 093°18'1 2.7
2018-Jan-20 04:30N 30°05' W 093°20'2 3.7
2018-Jan-20 04:00N 30°04' W 093°21'1 2.1
2018-Jan-20 03:30N 30°04' W 093°22'2 4.1
2018-Jan-20 03:00N 30°04' W 093°24'2 4.7
2018-Jan-20 02:30N 30°04' W 093°27'2 4.8
2018-Jan-20 02:00N 30°04' W 093°30'2 4.9
2018-Jan-20 01:30N 30°04' W 093°33'3 5.1
2018-Jan-20 00:50N 30°04' W 093°37'2 5.7
2018-Jan-20 00:30N 30°04' W 093°39'4 4.7
2018-Jan-19 23:40N 30°03' W 093°43'9 1.1
2018-Jan-19 15:21N 29°57' W 093°52'0 0.5
2018-Jan-19 14:58N 29°57' W 093°52'2 1.3
2018-Jan-19 13:47N 29°56' W 093°52'58 4.4
2018-Jan-19 00:40N 29°30' W 094°52'1 7.2
2018-Jan-19 00:28N 29°31' W 094°53'3 7.3
2018-Jan-19 00:00N 29°34' W 094°55'4 7.6
2018-Jan-18 23:29N 29°38' W 094°58'4 7.7
2018-Jan-18 23:00N 29°41' W 094°59'  
2018-Jan-11 18:29N 29°46' W 095°05'1 0.7
2018-Jan-11 17:36N 29°45' W 095°06'1 0.6
2018-Jan-11 16:43N 29°46' W 095°05'0 0.0
2018-Jan-11 06:47N 29°46' W 095°05'1 0.2
2018-Jan-11 02:50N 29°45' W 095°06'0 1.0
2018-Jan-11 02:20N 29°46' W 095°05'2 7.3
2018-Jan-11 02:00N 29°44' W 095°03'  
Track history (hours):
 
Tides and Currents Weather Stations Pressure Air Temp Water Temp Dewpoint Dewpoint Depression Visibility Wind Speed Wind Dir Waves Ship Positions

American Life

Owner: American Commercial Lines LLC, Jeffersonville, IN. More information available from US FCC via Universal Licensing System and Coast Guard Vessel Documentation Center.

Last reported at 2018-Jan-20 11:03 UTC. Time now 2018-Jan-20 13:04 UTC.
Position N 29°56' W 093°01'.

Length 24 m; draft 3.1 m.

Type: Towing. MMSI: 367725060.

Date/timePositionNaut miles runAvg speedWind from/ knotsBaromVisibWave heightAir tempDewpointWater temp
2018-Jan-20 11:03N 29°56' W 093°01'0 3.3
2018-Jan-20 11:00N 29°56' W 093°01'2 3.7
2018-Jan-20 10:30N 29°56' W 093°03'2 4.5
2018-Jan-20 10:00N 29°56' W 093°06'2 4.7
2018-Jan-20 09:30N 29°56' W 093°09'2 4.2
2018-Jan-20 09:00N 29°57' W 093°11'3 5.0
2018-Jan-20 08:30N 29°59' W 093°13'2 4.4
2018-Jan-20 08:00N 30°01' W 093°14'1 1.6
2018-Jan-20 07:30N 30°02' W 093°15'2 3.2
2018-Jan-20 07:00N 30°03' W 093°16'2 4.6
2018-Jan-20 06:30N 30°05' W 093°17'1 1.8
2018-Jan-20 06:00N 30°05' W 093°18'1 1.4
2018-Jan-20 05:30N 30°06' W 093°18'0 0.1
2018-Jan-20 05:00N 30°06' W 093°18'1 2.7
2018-Jan-20 04:30N 30°05' W 093°20'2 3.7
2018-Jan-20 04:00N 30°04' W 093°21'1 2.1
2018-Jan-20 03:30N 30°04' W 093°22'2 4.1
2018-Jan-20 03:00N 30°04' W 093°24'2 4.7
2018-Jan-20 02:30N 30°04' W 093°27'2 4.8
2018-Jan-20 02:00N 30°04' W 093°30'2 4.9
2018-Jan-20 01:30N 30°04' W 093°33'3 5.1
2018-Jan-20 00:50N 30°04' W 093°37'2 5.7
2018-Jan-20 00:30N 30°04' W 093°39'4 4.7
2018-Jan-19 23:40N 30°03' W 093°43'9 1.1
2018-Jan-19 15:21N 29°57' W 093°52'0 0.5
2018-Jan-19 14:58N 29°57' W 093°52'2 1.3
2018-Jan-19 13:47N 29°56' W 093°52'58 4.4
2018-Jan-19 00:40N 29°30' W 094°52'1 7.2
2018-Jan-19 00:28N 29°31' W 094°53'3 7.3
2018-Jan-19 00:00N 29°34' W 094°55'4 7.6
2018-Jan-18 23:29N 29°38' W 094°58'4 7.7
2018-Jan-18 23:00N 29°41' W 094°59'  
2018-Jan-11 18:29N 29°46' W 095°05'1 0.7
2018-Jan-11 17:36N 29°45' W 095°06'1 0.6
2018-Jan-11 16:43N 29°46' W 095°05'0 0.0
2018-Jan-11 06:47N 29°46' W 095°05'1 0.2
2018-Jan-11 02:50N 29°45' W 095°06'0 1.0
2018-Jan-11 02:20N 29°46' W 095°05'2 7.3
2018-Jan-11 02:00N 29°44' W 095°03'  

Dump ship's entire track history